createdAt,value
2022-08-19T00:00:49.873Z,22.10
2022-08-19T00:03:19.492Z,24.45
2022-08-19T00:05:48.777Z,19.60
2022-08-19T00:08:17.965Z,23.05
2022-08-19T00:10:48.906Z,27.80
2022-08-19T00:13:19.975Z,21.23
2022-08-19T00:15:49.148Z,25.33
2022-08-19T00:18:18.309Z,23.33
2022-08-19T00:20:47.678Z,19.83
2022-08-19T00:23:17.185Z,20.67
2022-08-19T00:25:48.659Z,19.35
2022-08-19T00:28:19.830Z,20.10
2022-08-19T00:30:49.264Z,19.60
2022-08-19T00:33:18.836Z,25.70
2022-08-19T00:35:48.270Z,19.48
2022-08-19T00:38:34.950Z,21.73
2022-08-19T00:41:07.905Z,18.92
2022-08-19T00:43:38.625Z,21.38
2022-08-19T00:46:07.970Z,20.15
2022-08-19T00:48:38.296Z,21.90
2022-08-19T00:51:08.339Z,20.52
2022-08-19T00:53:37.514Z,19.10
2022-08-19T00:56:07.855Z,20.70
2022-08-19T00:58:38.622Z,21.83
2022-08-19T01:01:08.878Z,20.70
2022-08-19T01:03:57.020Z,18.95
2022-08-19T01:06:28.020Z,21.17
2022-08-19T01:08:57.277Z,19.45
2022-08-19T01:11:26.775Z,21.23
2022-08-19T01:13:57.870Z,20.38
2022-08-19T01:16:30.060Z,17.38
2022-08-19T01:18:59.411Z,19.08
2022-08-19T01:21:33.583Z,19.88
2022-08-19T01:24:04.621Z,26.30
2022-08-19T01:26:39.930Z,23.80
2022-08-19T01:29:11.981Z,21.23
2022-08-19T01:31:41.254Z,21.38
2022-08-19T01:34:11.409Z,18.00
2022-08-19T01:36:48.309Z,19.63
2022-08-19T01:39:22.499Z,22.60
2022-08-19T01:41:56.142Z,22.02
2022-08-19T01:44:26.044Z,23.13
2022-08-19T01:46:55.417Z,23.08
2022-08-19T01:49:26.189Z,23.40
2022-08-19T01:51:56.224Z,20.75
2022-08-19T01:54:28.093Z,19.35
2022-08-19T01:57:03.100Z,19.00
2022-08-19T01:59:34.458Z,22.10
2022-08-19T02:02:03.882Z,21.50
2022-08-19T02:04:33.253Z,23.13
2022-08-19T02:07:02.627Z,24.45
2022-08-19T02:09:33.877Z,21.17
2022-08-19T02:12:03.437Z,19.77
2022-08-19T02:14:32.621Z,21.33
2022-08-19T02:17:02.100Z,21.85
2022-08-19T02:19:32.924Z,21.92
2022-08-19T02:22:02.301Z,20.85
2022-08-19T02:24:33.089Z,22.98
2022-08-19T02:27:02.584Z,21.67
2022-08-19T02:29:31.701Z,25.48
2022-08-19T02:32:00.798Z,21.33
2022-08-19T02:34:30.244Z,19.88
2022-08-19T02:37:03.180Z,26.58
2022-08-19T02:39:33.842Z,22.40
2022-08-19T02:42:03.154Z,24.52
2022-08-19T02:44:32.455Z,35.42
2022-08-19T02:47:01.900Z,22.20
2022-08-19T02:49:34.642Z,21.05
2022-08-19T02:52:04.901Z,23.45
2022-08-19T02:54:35.623Z,21.88
2022-08-19T02:57:05.102Z,20.77
2022-08-19T02:59:34.938Z,19.15
2022-08-19T03:02:04.339Z,23.08
2022-08-19T03:04:33.483Z,23.88
2022-08-19T03:07:09.323Z,19.23
2022-08-19T03:09:43.433Z,18.13
2022-08-19T03:12:13.409Z,23.75
2022-08-19T03:14:42.757Z,21.05
2022-08-19T03:17:13.678Z,21.63
2022-08-19T03:19:44.206Z,22.48
2022-08-19T03:22:13.541Z,18.92
2022-08-19T03:24:45.033Z,19.85
2022-08-19T03:27:15.188Z,23.30
2022-08-19T03:29:44.765Z,24.50
2022-08-19T03:32:32.154Z,41.00
2022-08-19T03:35:03.695Z,33.08
2022-08-19T03:37:33.046Z,26.95
2022-08-19T03:40:05.186Z,21.52
2022-08-19T03:42:58.629Z,35.47
2022-08-19T03:45:24.014Z,21.80
2022-08-19T03:47:53.545Z,21.25
2022-08-19T03:50:23.537Z,23.90
2022-08-19T03:52:53.674Z,27.88
2022-08-19T03:55:24.733Z,22.35
2022-08-19T03:57:58.605Z,20.52
2022-08-19T04:00:28.643Z,20.90
2022-08-19T04:03:00.381Z,21.50
2022-08-19T04:05:30.895Z,20.40
2022-08-19T04:08:00.542Z,22.92
2022-08-19T04:10:31.509Z,26.25
2022-08-19T04:13:00.948Z,22.90
2022-08-19T04:15:34.568Z,16.90
2022-08-19T04:18:04.129Z,19.98
2022-08-19T04:20:33.896Z,17.80
2022-08-19T04:23:03.141Z,18.95
2022-08-19T04:25:39.118Z,21.77
2022-08-19T04:28:10.670Z,21.15
2022-08-19T04:30:41.972Z,23.58
2022-08-19T04:33:12.029Z,26.05
2022-08-19T04:35:43.320Z,23.17
2022-08-19T04:38:13.827Z,22.40
2022-08-19T04:41:03.570Z,18.17
2022-08-19T04:43:33.757Z,18.75
2022-08-19T04:46:07.971Z,24.40
2022-08-19T04:48:37.749Z,25.08
2022-08-19T04:51:18.705Z,23.77
2022-08-19T04:53:48.065Z,18.35
2022-08-19T04:56:22.680Z,29.77
2022-08-19T04:58:53.309Z,33.00
2022-08-19T05:01:24.566Z,22.70
2022-08-19T05:03:54.424Z,29.15
2022-08-19T05:06:24.883Z,24.63
2022-08-19T05:08:54.666Z,26.83
2022-08-19T05:11:27.287Z,26.27
2022-08-19T05:13:57.373Z,25.98
2022-08-19T05:16:27.799Z,22.50
2022-08-19T05:19:15.417Z,19.20
2022-08-19T05:22:02.686Z,18.70
2022-08-19T05:24:35.274Z,20.23
2022-08-19T05:27:06.801Z,27.27
2022-08-19T05:29:36.913Z,27.65
2022-08-19T05:32:09.820Z,31.60
2022-08-19T05:34:40.655Z,24.00
2022-08-19T05:37:10.335Z,24.95
2022-08-19T05:39:41.592Z,27.92
2022-08-19T05:42:14.151Z,30.30
2022-08-19T05:44:46.157Z,31.00
2022-08-19T05:47:16.960Z,32.78
2022-08-19T05:49:46.557Z,25.48
2022-08-19T05:52:18.887Z,29.55
2022-08-19T05:54:52.031Z,26.30
2022-08-19T05:57:22.633Z,31.65
2022-08-19T05:59:53.210Z,28.35
2022-08-19T06:02:28.387Z,30.85
2022-08-19T06:04:58.014Z,30.75
2022-08-19T06:07:27.244Z,26.45
2022-08-19T06:10:00.010Z,24.15
2022-08-19T06:12:35.286Z,28.20
2022-08-19T06:15:07.125Z,38.13
2022-08-19T06:17:36.876Z,37.40
2022-08-19T06:20:07.184Z,32.50
2022-08-19T06:22:41.006Z,34.45
2022-08-19T06:25:11.958Z,22.33
2022-08-19T06:27:58.977Z,25.38
2022-08-19T06:30:33.761Z,24.13
2022-08-19T06:33:02.899Z,25.20
2022-08-19T06:35:32.213Z,25.10
2022-08-19T06:38:01.576Z,21.33
2022-08-19T06:40:30.754Z,25.50
2022-08-19T06:43:03.619Z,21.70
2022-08-19T06:45:39.430Z,22.38
2022-08-19T06:48:09.004Z,28.30
2022-08-19T06:50:41.204Z,21.02
2022-08-19T06:53:10.489Z,23.27
2022-08-19T06:55:41.339Z,24.05
2022-08-19T06:58:12.268Z,22.92
2022-08-19T07:00:41.687Z,22.02
2022-08-19T07:03:13.257Z,22.80
2022-08-19T07:05:45.456Z,21.08
2022-08-19T07:08:15.812Z,20.25
2022-08-19T07:10:48.975Z,21.60
2022-08-19T07:13:20.241Z,22.65
2022-08-19T07:15:51.363Z,30.70
2022-08-19T07:18:22.577Z,25.90
2022-08-19T07:20:52.020Z,22.33
2022-08-19T07:23:22.509Z,25.40
2022-08-19T07:25:53.047Z,23.92
2022-08-19T07:28:25.164Z,20.98
2022-08-19T07:30:56.917Z,22.33
2022-08-19T07:33:28.053Z,23.08
2022-08-19T07:35:57.499Z,24.45
2022-08-19T07:38:26.712Z,27.23
2022-08-19T07:40:56.578Z,19.02
2022-08-19T07:43:34.878Z,19.27
2022-08-19T07:46:05.131Z,22.00
2022-08-19T07:48:34.792Z,25.58
2022-08-19T07:51:09.111Z,21.92
2022-08-19T07:53:40.104Z,15.50
2022-08-19T07:56:10.171Z,18.35
2022-08-19T07:58:43.998Z,18.60
2022-08-19T08:01:14.987Z,18.45
2022-08-19T08:04:02.422Z,19.67
2022-08-19T08:06:49.316Z,18.60
2022-08-19T08:09:23.062Z,18.90
2022-08-19T08:12:01.969Z,16.02
2022-08-19T08:14:39.158Z,20.50
2022-08-19T08:17:13.765Z,17.02
2022-08-19T08:19:43.759Z,14.85
2022-08-19T08:22:36.878Z,14.60
2022-08-19T08:25:09.058Z,18.63
2022-08-19T08:27:41.945Z,16.60
2022-08-19T08:30:14.798Z,14.82
2022-08-19T08:32:44.140Z,15.68
2022-08-19T08:35:18.098Z,14.02
2022-08-19T08:37:51.339Z,13.20
2022-08-19T08:40:28.820Z,16.10
2022-08-19T08:45:53.738Z,12.35
2022-08-19T08:48:37.978Z,15.07
2022-08-19T08:51:13.640Z,14.77
2022-08-19T08:53:56.103Z,12.77
2022-08-19T08:56:26.791Z,21.10
2022-08-19T08:59:02.000Z,16.48
2022-08-19T09:01:32.799Z,10.70
2022-08-19T09:04:05.354Z,14.15
2022-08-19T09:06:41.303Z,11.70
2022-08-19T09:09:19.734Z,16.77
2022-08-19T09:12:02.557Z,18.02
2022-08-19T09:14:51.161Z,11.57
2022-08-19T09:17:28.609Z,15.80
2022-08-19T09:20:01.938Z,14.25
2022-08-19T09:22:35.108Z,18.73
2022-08-19T09:25:05.869Z,28.75
2022-08-19T09:27:42.860Z,14.30
2022-08-19T09:30:25.724Z,14.65
2022-08-19T09:32:57.590Z,14.30
2022-08-19T09:35:30.745Z,29.50
2022-08-19T09:38:01.375Z,18.15
2022-08-19T09:40:37.759Z,12.75
2022-08-19T09:43:11.478Z,16.75
2022-08-19T09:45:42.895Z,13.23
2022-08-19T09:48:19.103Z,15.70
2022-08-19T09:50:52.909Z,13.80
2022-08-19T09:53:25.195Z,12.68
2022-08-19T09:55:56.759Z,14.07
2022-08-19T09:58:28.681Z,15.73
2022-08-19T10:00:59.377Z,15.43
2022-08-19T10:03:32.085Z,24.65
2022-08-19T10:06:03.553Z,19.08
2022-08-19T10:08:37.456Z,9.80
2022-08-19T10:11:28.268Z,10.93
2022-08-19T10:13:57.356Z,12.95
2022-08-19T10:16:30.116Z,12.88
2022-08-19T10:19:03.537Z,13.27
2022-08-19T10:21:36.427Z,17.20
2022-08-19T10:24:07.151Z,12.68
2022-08-19T10:26:48.562Z,11.77
2022-08-19T10:29:32.672Z,12.70
2022-08-19T10:32:03.526Z,12.60
2022-08-19T10:34:34.358Z,8.85
2022-08-19T10:37:05.779Z,11.57
2022-08-19T10:39:41.173Z,11.40
2022-08-19T10:42:14.345Z,14.30
2022-08-19T10:44:44.599Z,10.90
2022-08-19T10:47:24.313Z,10.55
2022-08-19T10:50:14.602Z,8.75
2022-08-19T10:52:49.170Z,10.93
2022-08-19T10:55:39.730Z,11.85
2022-08-19T10:58:14.160Z,9.52
2022-08-19T11:00:46.125Z,14.90
2022-08-19T11:03:15.128Z,11.98
2022-08-19T11:05:45.755Z,8.65
2022-08-19T11:08:23.006Z,11.80
2022-08-19T11:11:01.668Z,9.90
2022-08-19T11:13:31.659Z,12.57
2022-08-19T11:16:06.755Z,14.27
2022-08-19T11:18:38.302Z,12.27
2022-08-19T11:21:20.003Z,15.02
2022-08-19T11:23:50.561Z,12.05
2022-08-19T11:26:21.722Z,11.02
2022-08-19T11:28:54.255Z,10.27
2022-08-19T11:31:28.963Z,10.20
2022-08-19T11:34:00.668Z,17.35
2022-08-19T11:36:33.484Z,9.73
2022-08-19T11:39:02.986Z,13.77
2022-08-19T11:41:32.189Z,13.30
2022-08-19T11:44:01.515Z,12.98
2022-08-19T11:46:31.526Z,12.68
2022-08-19T11:49:02.594Z,9.70
2022-08-19T11:51:33.626Z,11.02
2022-08-19T11:54:03.329Z,12.80
2022-08-19T11:56:32.518Z,13.60
2022-08-19T11:59:03.756Z,13.50
2022-08-19T12:01:33.461Z,15.70
2022-08-19T12:04:02.916Z,10.88
2022-08-19T12:06:35.813Z,15.65
2022-08-19T12:09:09.503Z,10.63
2022-08-19T12:11:39.637Z,13.43
2022-08-19T12:14:14.012Z,13.02
2022-08-19T12:16:49.164Z,13.45
2022-08-19T12:19:22.645Z,21.88
2022-08-19T12:21:56.453Z,19.33
2022-08-19T12:24:26.112Z,19.80
2022-08-19T12:26:56.458Z,14.23
2022-08-19T12:29:30.762Z,14.35
2022-08-19T12:32:02.285Z,8.80
2022-08-19T12:34:34.830Z,17.40
2022-08-19T12:37:08.041Z,14.65
2022-08-19T12:39:39.002Z,10.93
2022-08-19T12:42:09.833Z,15.32
2022-08-19T12:44:41.609Z,11.73
2022-08-19T12:47:14.242Z,16.30
2022-08-19T12:49:54.005Z,13.77
2022-08-19T12:52:28.254Z,12.48
2022-08-19T12:54:59.082Z,14.70
2022-08-19T12:57:32.773Z,13.15
2022-08-19T13:00:09.835Z,12.70
2022-08-19T13:02:39.982Z,21.70
2022-08-19T13:05:14.664Z,20.92
2022-08-19T13:07:45.853Z,13.55
2022-08-19T13:10:17.748Z,16.08
2022-08-19T13:12:51.919Z,12.32
2022-08-19T13:15:24.013Z,10.93
2022-08-19T13:17:56.773Z,15.88
2022-08-19T13:20:27.266Z,19.15
2022-08-19T13:22:58.484Z,11.45
2022-08-19T13:25:28.160Z,12.93
2022-08-19T13:27:57.275Z,10.90
2022-08-19T13:30:44.197Z,10.48
2022-08-19T13:33:16.169Z,12.60
2022-08-19T13:35:49.032Z,11.80
2022-08-19T13:38:23.177Z,10.35
2022-08-19T13:40:54.015Z,12.38
2022-08-19T13:43:25.500Z,10.02
2022-08-19T13:45:57.271Z,13.77
2022-08-19T13:48:28.411Z,17.35
2022-08-19T13:50:59.634Z,11.05
2022-08-19T13:53:31.295Z,12.48
2022-08-19T13:56:00.460Z,12.95
2022-08-19T13:58:29.648Z,18.17
2022-08-19T14:01:00.173Z,12.43
2022-08-19T14:03:29.827Z,12.10
2022-08-19T14:05:59.241Z,13.25
2022-08-19T14:08:31.688Z,9.18
2022-08-19T14:11:06.774Z,14.27
2022-08-19T14:13:36.321Z,9.68
2022-08-19T14:16:10.604Z,10.35
2022-08-19T14:18:40.659Z,10.25
2022-08-19T14:21:15.781Z,11.27
2022-08-19T14:23:47.239Z,18.35
2022-08-19T14:26:19.602Z,13.75
2022-08-19T14:28:49.330Z,13.88
2022-08-19T14:31:20.520Z,13.20
2022-08-19T14:33:50.269Z,12.75
2022-08-19T14:36:20.688Z,10.73
2022-08-19T14:38:51.636Z,14.75
2022-08-19T14:41:23.571Z,13.32
2022-08-19T14:43:55.348Z,13.48
2022-08-19T14:46:28.256Z,13.55
2022-08-19T14:48:59.897Z,11.98
2022-08-19T14:51:29.780Z,17.08
2022-08-19T14:54:00.553Z,14.18
2022-08-19T14:56:31.452Z,10.98
2022-08-19T14:59:02.141Z,13.20
2022-08-19T15:01:31.293Z,15.30
2022-08-19T15:04:00.351Z,14.10
2022-08-19T15:06:30.562Z,15.75
2022-08-19T15:09:04.247Z,10.85
2022-08-19T15:11:35.139Z,14.20
2022-08-19T15:14:04.316Z,15.30
2022-08-19T15:16:33.750Z,11.30
2022-08-19T15:19:03.258Z,10.13
2022-08-19T15:21:33.358Z,12.82
2022-08-19T15:24:03.983Z,13.23
2022-08-19T15:26:33.645Z,14.38
2022-08-19T15:29:04.189Z,13.75
2022-08-19T15:31:37.978Z,14.50
2022-08-19T15:34:08.254Z,10.73
2022-08-19T15:36:37.952Z,10.77
2022-08-19T15:39:10.208Z,13.00
2022-08-19T15:41:41.207Z,13.52
2022-08-19T15:44:14.753Z,10.57
2022-08-19T15:46:46.349Z,11.32
2022-08-19T15:49:18.219Z,13.50
2022-08-19T15:51:49.986Z,13.20
2022-08-19T15:54:22.523Z,10.82
2022-08-19T15:57:10.480Z,11.50
2022-08-19T16:00:00.755Z,14.80
2022-08-19T16:02:53.634Z,13.50
2022-08-19T16:05:43.103Z,15.52
2022-08-19T16:08:12.820Z,10.20
2022-08-19T16:10:43.291Z,16.02
2022-08-19T16:13:12.521Z,11.27
2022-08-19T16:15:44.148Z,11.60
2022-08-19T16:18:13.365Z,17.10
2022-08-19T16:20:42.578Z,16.10
2022-08-19T16:23:11.547Z,13.23
2022-08-19T16:25:40.540Z,12.73
2022-08-19T16:28:11.366Z,14.80
2022-08-19T16:30:42.943Z,16.17
2022-08-19T16:33:22.793Z,11.50
2022-08-19T16:36:00.336Z,11.80
2022-08-19T16:38:37.641Z,16.20
2022-08-19T16:41:06.971Z,12.63
2022-08-19T16:43:38.994Z,12.23
2022-08-19T16:46:09.347Z,17.33
2022-08-19T16:48:43.034Z,12.00
2022-08-19T16:51:13.180Z,13.27
2022-08-19T16:53:45.251Z,11.38
2022-08-19T16:56:15.178Z,17.35
2022-08-19T16:58:45.558Z,15.75
2022-08-19T17:01:15.550Z,11.73
2022-08-19T17:03:44.808Z,16.27
2022-08-19T17:06:20.407Z,16.25
2022-08-19T17:08:52.298Z,16.00
2022-08-19T17:11:22.859Z,15.15
2022-08-19T17:13:55.443Z,22.25
2022-08-19T17:16:27.048Z,14.70
2022-08-19T17:18:58.543Z,18.00
2022-08-19T17:21:32.107Z,12.57
2022-08-19T17:24:03.379Z,15.05
2022-08-19T17:26:32.585Z,14.15
2022-08-19T17:29:03.108Z,13.10
2022-08-19T17:31:33.469Z,13.35
2022-08-19T17:34:03.365Z,17.02
2022-08-19T17:36:34.366Z,11.27
2022-08-19T17:39:05.540Z,14.95
2022-08-19T17:41:35.297Z,16.17
2022-08-19T17:44:06.825Z,17.83
2022-08-19T17:46:36.240Z,17.52
2022-08-19T17:49:06.785Z,15.88
2022-08-19T17:51:45.475Z,15.55
2022-08-19T17:54:19.594Z,15.85
2022-08-19T17:56:49.013Z,11.88
2022-08-19T17:59:19.747Z,17.05
2022-08-19T18:01:54.612Z,15.48
2022-08-19T18:04:25.947Z,13.73
2022-08-19T18:06:56.079Z,12.27
2022-08-19T18:09:27.537Z,16.10
2022-08-19T18:11:58.289Z,19.83
2022-08-19T18:14:34.378Z,14.90
2022-08-19T18:17:10.030Z,17.02
2022-08-19T18:19:43.122Z,15.13
2022-08-19T18:22:22.524Z,17.25
2022-08-19T18:24:52.487Z,13.55
2022-08-19T18:27:21.642Z,18.20
2022-08-19T18:29:52.337Z,13.77
2022-08-19T18:32:23.737Z,26.60
2022-08-19T18:34:54.277Z,22.23
2022-08-19T18:37:25.669Z,15.02
2022-08-19T18:40:13.166Z,16.15
2022-08-19T18:46:07.151Z,25.05
2022-08-19T18:48:54.682Z,17.98
2022-08-19T18:51:28.155Z,24.63
2022-08-19T18:53:59.642Z,24.52
2022-08-19T18:56:32.269Z,20.60
2022-08-19T18:59:03.078Z,16.90
2022-08-19T19:01:37.108Z,19.95
2022-08-19T19:04:10.671Z,17.23
2022-08-19T19:06:42.769Z,17.52
2022-08-19T19:09:15.467Z,16.33
2022-08-19T19:11:47.165Z,23.25
2022-08-19T19:14:45.714Z,24.27
2022-08-19T19:17:14.851Z,19.92
2022-08-19T19:19:44.904Z,19.10
2022-08-19T19:22:17.970Z,14.20
2022-08-19T19:24:47.518Z,18.63
2022-08-19T19:27:18.648Z,20.85
2022-08-19T19:29:52.111Z,14.35
2022-08-19T19:32:26.391Z,18.05
2022-08-19T19:34:55.590Z,19.50
2022-08-19T19:37:24.821Z,21.48
2022-08-19T19:39:53.973Z,14.65
2022-08-19T19:42:25.074Z,19.77
2022-08-19T19:44:57.214Z,18.15
2022-08-19T19:47:28.511Z,20.30
2022-08-19T19:50:13.641Z,14.23
2022-08-19T19:52:45.559Z,14.68
2022-08-19T19:55:18.948Z,23.77
2022-08-19T19:57:49.363Z,26.83
2022-08-19T20:00:20.022Z,13.43
2022-08-19T20:02:53.564Z,16.63
2022-08-19T20:05:24.277Z,16.50
2022-08-19T20:08:13.124Z,20.55
2022-08-19T20:10:44.233Z,15.60
2022-08-19T20:13:15.447Z,15.85
2022-08-19T20:15:45.059Z,16.35
2022-08-19T20:18:15.684Z,15.13
2022-08-19T20:20:46.581Z,17.50
2022-08-19T20:23:16.079Z,14.68
2022-08-19T20:25:45.136Z,18.27
2022-08-19T20:28:14.405Z,16.15
2022-08-19T20:30:46.636Z,15.48
2022-08-19T20:33:19.322Z,19.65
2022-08-19T20:35:48.717Z,21.08
2022-08-19T20:38:17.746Z,15.20
2022-08-19T20:40:46.759Z,14.68
2022-08-19T20:43:16.195Z,14.77
2022-08-19T20:45:45.199Z,15.75
2022-08-19T20:48:14.273Z,14.35
2022-08-19T20:50:44.922Z,16.50
2022-08-19T20:53:16.230Z,19.27
2022-08-19T20:55:46.995Z,17.45
2022-08-19T20:58:16.783Z,16.02
2022-08-19T21:00:46.748Z,19.33
2022-08-19T21:03:19.613Z,16.50
2022-08-19T21:05:50.364Z,18.48
2022-08-19T21:08:20.038Z,18.17
2022-08-19T21:10:50.470Z,19.23
2022-08-19T21:13:20.655Z,18.15
2022-08-19T21:15:50.530Z,17.92
2022-08-19T21:18:21.784Z,17.58
2022-08-19T21:20:52.841Z,14.45
2022-08-19T21:23:27.282Z,18.70
2022-08-19T21:25:58.326Z,14.52
2022-08-19T21:28:35.554Z,25.73
2022-08-19T21:31:10.470Z,20.08
2022-08-19T21:33:39.860Z,17.50
2022-08-19T21:36:11.265Z,18.77
2022-08-19T21:38:41.417Z,15.63
2022-08-19T21:41:11.199Z,13.88
2022-08-19T21:43:40.610Z,16.33
2022-08-19T21:46:10.050Z,14.13
2022-08-19T21:48:39.300Z,15.57
2022-08-19T21:51:09.849Z,16.15
2022-08-19T21:53:38.866Z,18.80
2022-08-19T21:56:08.627Z,18.85
2022-08-19T21:58:37.705Z,19.38
2022-08-19T22:01:08.602Z,16.83
2022-08-19T22:03:39.148Z,20.58
2022-08-19T22:06:10.552Z,16.90
2022-08-19T22:08:41.353Z,18.30
2022-08-19T22:11:12.115Z,19.00
2022-08-19T22:13:42.328Z,18.63
2022-08-19T22:16:14.062Z,15.52
2022-08-19T22:18:44.378Z,18.10
2022-08-19T22:21:14.854Z,14.65
2022-08-19T22:23:50.138Z,16.40
2022-08-19T22:26:19.948Z,19.92
2022-08-19T22:28:48.976Z,17.98
2022-08-19T22:31:19.235Z,14.73
2022-08-19T22:33:48.603Z,14.20
2022-08-19T22:36:19.338Z,15.38
2022-08-19T22:38:48.482Z,23.05
2022-08-19T22:41:17.439Z,17.05
2022-08-19T22:43:46.625Z,19.25
2022-08-19T22:46:17.368Z,20.08
2022-08-19T22:48:48.076Z,16.45
2022-08-19T22:51:55.577Z,14.50
2022-08-19T22:54:24.845Z,13.35
2022-08-19T22:56:54.033Z,14.13
2022-08-19T22:59:23.036Z,25.70
2022-08-19T23:01:52.075Z,16.67
2022-08-19T23:04:21.266Z,17.27
2022-08-19T23:06:53.080Z,11.95
2022-08-19T23:09:23.377Z,17.15
2022-08-19T23:11:52.661Z,17.08
2022-08-19T23:14:21.720Z,14.82
2022-08-19T23:16:51.957Z,14.50
2022-08-19T23:19:22.692Z,14.45
2022-08-19T23:21:53.671Z,14.23
2022-08-19T23:24:22.811Z,12.75
2022-08-19T23:27:09.743Z,18.10
2022-08-19T23:29:56.773Z,12.30
2022-08-19T23:32:26.216Z,17.00
2022-08-19T23:34:57.820Z,14.30
2022-08-19T23:37:30.206Z,18.50
2022-08-19T23:39:59.507Z,11.63
2022-08-19T23:42:29.159Z,13.65
2022-08-19T23:45:02.109Z,15.43
2022-08-19T23:47:34.563Z,11.68
2022-08-19T23:50:06.403Z,16.52
2022-08-19T23:52:44.946Z,15.25
2022-08-19T23:55:15.589Z,16.10
2022-08-19T23:57:45.044Z,13.65
